sensor_id;sensor_type;location;lat;lon;timestamp;temperature;humidity
65072;DHT22;51663;52.310;17.016;2024-01-25T00:02:23;26.50;30.40
65072;DHT22;51663;52.310;17.016;2024-01-25T00:05:25;26.90;29.90
65072;DHT22;51663;52.310;17.016;2024-01-25T00:08:28;26.70;30.20
65072;DHT22;51663;52.310;17.016;2024-01-25T00:11:30;26.50;31.60
65072;DHT22;51663;52.310;17.016;2024-01-25T00:14:34;26.80;31.50
65072;DHT22;51663;52.310;17.016;2024-01-25T00:17:36;26.60;31.50
65072;DHT22;51663;52.310;17.016;2024-01-25T00:20:39;26.70;31.50
65072;DHT22;51663;52.310;17.016;2024-01-25T00:23:41;27.00;31.30
65072;DHT22;51663;52.310;17.016;2024-01-25T00:26:43;27.40;30.70
65072;DHT22;51663;52.310;17.016;2024-01-25T00:29:45;27.10;30.70
65072;DHT22;51663;52.310;17.016;2024-01-25T00:32:48;27.10;30.60
65072;DHT22;51663;52.310;17.016;2024-01-25T00:35:51;27.30;30.70
65072;DHT22;51663;52.310;17.016;2024-01-25T00:38:56;27.10;30.30
65072;DHT22;51663;52.310;17.016;2024-01-25T00:42:05;27.20;30.30
65072;DHT22;51663;52.310;17.016;2024-01-25T00:45:11;27.20;31.00
65072;DHT22;51663;52.310;17.016;2024-01-25T00:48:14;27.30;30.00
65072;DHT22;51663;52.310;17.016;2024-01-25T00:51:21;27.50;29.90
65072;DHT22;51663;52.310;17.016;2024-01-25T00:54:24;27.20;30.00
65072;DHT22;51663;52.310;17.016;2024-01-25T00:57:26;26.90;30.00
65072;DHT22;51663;52.310;17.016;2024-01-25T01:00:29;27.10;30.00
65072;DHT22;51663;52.310;17.016;2024-01-25T01:03:32;27.60;29.40
65072;DHT22;51663;52.310;17.016;2024-01-25T01:06:34;27.60;29.40
65072;DHT22;51663;52.310;17.016;2024-01-25T01:09:37;27.50;29.80
65072;DHT22;51663;52.310;17.016;2024-01-25T01:12:39;27.40;30.00
65072;DHT22;51663;52.310;17.016;2024-01-25T01:15:41;27.40;30.00
65072;DHT22;51663;52.310;17.016;2024-01-25T01:18:43;27.10;30.60
65072;DHT22;51663;52.310;17.016;2024-01-25T01:21:46;27.10;30.70
65072;DHT22;51663;52.310;17.016;2024-01-25T01:24:48;27.20;30.80
65072;DHT22;51663;52.310;17.016;2024-01-25T01:27:50;27.50;30.20
65072;DHT22;51663;52.310;17.016;2024-01-25T01:30:53;27.60;30.20
65072;DHT22;51663;52.310;17.016;2024-01-25T01:33:55;27.80;30.00
65072;DHT22;51663;52.310;17.016;2024-01-25T01:36:58;27.70;30.90
65072;DHT22;51663;52.310;17.016;2024-01-25T01:40:00;27.90;30.40
65072;DHT22;51663;52.310;17.016;2024-01-25T01:43:02;28.00;30.30
65072;DHT22;51663;52.310;17.016;2024-01-25T01:46:34;28.10;29.90
65072;DHT22;51663;52.310;17.016;2024-01-25T01:49:44;28.00;30.00
65072;DHT22;51663;52.310;17.016;2024-01-25T01:52:47;28.10;29.60
65072;DHT22;51663;52.310;17.016;2024-01-25T01:55:50;28.30;29.30
65072;DHT22;51663;52.310;17.016;2024-01-25T01:58:53;27.80;29.60
65072;DHT22;51663;52.310;17.016;2024-01-25T02:01:58;27.60;29.60
65072;DHT22;51663;52.310;17.016;2024-01-25T02:05:00;27.70;29.80
65072;DHT22;51663;52.310;17.016;2024-01-25T02:08:04;27.60;29.80
65072;DHT22;51663;52.310;17.016;2024-01-25T02:11:06;27.50;30.00
65072;DHT22;51663;52.310;17.016;2024-01-25T02:14:10;27.40;30.00
65072;DHT22;51663;52.310;17.016;2024-01-25T02:17:13;26.70;30.50
65072;DHT22;51663;52.310;17.016;2024-01-25T02:20:18;27.00;30.10
65072;DHT22;51663;52.310;17.016;2024-01-25T02:23:20;26.80;30.30
65072;DHT22;51663;52.310;17.016;2024-01-25T02:26:23;27.10;30.20
65072;DHT22;51663;52.310;17.016;2024-01-25T02:29:25;27.10;29.90
65072;DHT22;51663;52.310;17.016;2024-01-25T02:32:27;27.40;29.70
65072;DHT22;51663;52.310;17.016;2024-01-25T02:35:29;27.50;29.50
65072;DHT22;51663;52.310;17.016;2024-01-25T02:38:32;27.60;29.40
65072;DHT22;51663;52.310;17.016;2024-01-25T02:41:34;27.20;29.60
65072;DHT22;51663;52.310;17.016;2024-01-25T02:44:36;27.40;29.30
65072;DHT22;51663;52.310;17.016;2024-01-25T02:47:38;27.40;29.30
65072;DHT22;51663;52.310;17.016;2024-01-25T02:50:41;27.80;29.00
65072;DHT22;51663;52.310;17.016;2024-01-25T02:53:43;28.00;28.50
65072;DHT22;51663;52.310;17.016;2024-01-25T02:56:45;27.80;28.60
65072;DHT22;51663;52.310;17.016;2024-01-25T02:59:47;27.70;28.30
65072;DHT22;51663;52.310;17.016;2024-01-25T03:02:50;27.60;28.50
65072;DHT22;51663;52.310;17.016;2024-01-25T03:05:52;27.90;28.10
65072;DHT22;51663;52.310;17.016;2024-01-25T03:08:55;27.80;28.00
65072;DHT22;51663;52.310;17.016;2024-01-25T03:11:57;27.90;27.90
65072;DHT22;51663;52.310;17.016;2024-01-25T03:14:59;27.90;27.90
65072;DHT22;51663;52.310;17.016;2024-01-25T03:18:01;28.10;27.70
65072;DHT22;51663;52.310;17.016;2024-01-25T03:21:04;28.20;27.60
65072;DHT22;51663;52.310;17.016;2024-01-25T03:24:06;27.60;27.90
65072;DHT22;51663;52.310;17.016;2024-01-25T03:27:08;27.70;27.90
65072;DHT22;51663;52.310;17.016;2024-01-25T03:30:15;28.00;27.70
65072;DHT22;51663;52.310;17.016;2024-01-25T03:33:17;28.00;27.70
65072;DHT22;51663;52.310;17.016;2024-01-25T03:36:20;27.70;27.80
65072;DHT22;51663;52.310;17.016;2024-01-25T03:39:22;27.70;27.80
65072;DHT22;51663;52.310;17.016;2024-01-25T03:42:24;27.40;28.00
65072;DHT22;51663;52.310;17.016;2024-01-25T03:45:27;27.20;28.20
65072;DHT22;51663;52.310;17.016;2024-01-25T03:48:30;27.70;28.00
65072;DHT22;51663;52.310;17.016;2024-01-25T03:51:33;27.90;27.70
65072;DHT22;51663;52.310;17.016;2024-01-25T03:54:35;27.70;27.70
65072;DHT22;51663;52.310;17.016;2024-01-25T03:57:37;28.10;27.50
65072;DHT22;51663;52.310;17.016;2024-01-25T04:00:42;28.10;27.30
65072;DHT22;51663;52.310;17.016;2024-01-25T04:03:44;28.10;27.40
65072;DHT22;51663;52.310;17.016;2024-01-25T04:06:46;28.10;27.50
65072;DHT22;51663;52.310;17.016;2024-01-25T04:09:49;28.20;27.70
65072;DHT22;51663;52.310;17.016;2024-01-25T04:12:52;28.10;27.90
65072;DHT22;51663;52.310;17.016;2024-01-25T04:15:58;27.70;28.20
65072;DHT22;51663;52.310;17.016;2024-01-25T04:19:01;28.00;28.70
65072;DHT22;51663;52.310;17.016;2024-01-25T04:22:03;28.10;28.40
65072;DHT22;51663;52.310;17.016;2024-01-25T04:25:06;28.10;28.40
65072;DHT22;51663;52.310;17.016;2024-01-25T04:28:08;27.60;28.90
65072;DHT22;51663;52.310;17.016;2024-01-25T04:31:11;27.60;29.10
65072;DHT22;51663;52.310;17.016;2024-01-25T04:34:13;27.60;29.40
65072;DHT22;51663;52.310;17.016;2024-01-25T04:37:16;27.70;29.40
65072;DHT22;51663;52.310;17.016;2024-01-25T04:40:19;27.70;29.50
65072;DHT22;51663;52.310;17.016;2024-01-25T04:43:21;27.70;29.40
65072;DHT22;51663;52.310;17.016;2024-01-25T04:46:23;27.70;29.50
65072;DHT22;51663;52.310;17.016;2024-01-25T04:49:26;27.70;29.50
65072;DHT22;51663;52.310;17.016;2024-01-25T04:52:28;27.90;29.50
65072;DHT22;51663;52.310;17.016;2024-01-25T04:55:30;28.20;29.30
65072;DHT22;51663;52.310;17.016;2024-01-25T04:58:33;28.30;29.00
65072;DHT22;51663;52.310;17.016;2024-01-25T05:01:35;28.20;29.10
65072;DHT22;51663;52.310;17.016;2024-01-25T05:04:37;28.00;29.30
65072;DHT22;51663;52.310;17.016;2024-01-25T05:07:40;27.80;29.70
65072;DHT22;51663;52.310;17.016;2024-01-25T05:10:42;28.00;29.70
65072;DHT22;51663;52.310;17.016;2024-01-25T05:13:45;27.80;29.70
65072;DHT22;51663;52.310;17.016;2024-01-25T05:16:47;27.40;29.80
65072;DHT22;51663;52.310;17.016;2024-01-25T05:19:49;27.50;29.80
65072;DHT22;51663;52.310;17.016;2024-01-25T05:22:52;27.60;30.00
65072;DHT22;51663;52.310;17.016;2024-01-25T05:25:54;27.70;29.70
65072;DHT22;51663;52.310;17.016;2024-01-25T05:28:57;27.40;30.00
65072;DHT22;51663;52.310;17.016;2024-01-25T05:31:59;27.40;30.10
65072;DHT22;51663;52.310;17.016;2024-01-25T05:35:01;27.40;30.10
65072;DHT22;51663;52.310;17.016;2024-01-25T05:38:03;27.50;30.00
65072;DHT22;51663;52.310;17.016;2024-01-25T05:41:06;27.40;30.00
65072;DHT22;51663;52.310;17.016;2024-01-25T05:44:08;27.50;30.00
65072;DHT22;51663;52.310;17.016;2024-01-25T05:47:10;27.00;30.40
65072;DHT22;51663;52.310;17.016;2024-01-25T05:50:12;26.90;30.60
65072;DHT22;51663;52.310;17.016;2024-01-25T05:53:15;27.00;30.50
65072;DHT22;51663;52.310;17.016;2024-01-25T05:56:18;27.00;30.30
65072;DHT22;51663;52.310;17.016;2024-01-25T05:59:20;27.00;30.40
65072;DHT22;51663;52.310;17.016;2024-01-25T06:02:22;27.30;30.00
65072;DHT22;51663;52.310;17.016;2024-01-25T06:05:25;27.30;30.00
65072;DHT22;51663;52.310;17.016;2024-01-25T06:08:27;27.40;29.90
65072;DHT22;51663;52.310;17.016;2024-01-25T06:11:30;26.90;30.40
65072;DHT22;51663;52.310;17.016;2024-01-25T06:14:32;27.10;30.20
65072;DHT22;51663;52.310;17.016;2024-01-25T06:17:34;27.10;30.40
65072;DHT22;51663;52.310;17.016;2024-01-25T06:20:36;26.80;30.50
65072;DHT22;51663;52.310;17.016;2024-01-25T06:23:39;26.80;30.60
65072;DHT22;51663;52.310;17.016;2024-01-25T06:26:40;26.70;30.50
65072;DHT22;51663;52.310;17.016;2024-01-25T06:29:43;26.70;30.60
65072;DHT22;51663;52.310;17.016;2024-01-25T06:32:45;26.60;30.90
65072;DHT22;51663;52.310;17.016;2024-01-25T06:35:48;26.90;30.40
65072;DHT22;51663;52.310;17.016;2024-01-25T06:38:50;26.90;30.30
65072;DHT22;51663;52.310;17.016;2024-01-25T06:41:52;26.70;30.40
65072;DHT22;51663;52.310;17.016;2024-01-25T06:44:54;26.60;30.90
65072;DHT22;51663;52.310;17.016;2024-01-25T06:47:57;26.80;30.80
65072;DHT22;51663;52.310;17.016;2024-01-25T06:51:00;26.40;30.80
65072;DHT22;51663;52.310;17.016;2024-01-25T06:54:05;27.00;30.70
65072;DHT22;51663;52.310;17.016;2024-01-25T06:57:07;26.90;30.20
65072;DHT22;51663;52.310;17.016;2024-01-25T07:00:10;27.10;30.10
65072;DHT22;51663;52.310;17.016;2024-01-25T07:03:15;26.90;30.30
65072;DHT22;51663;52.310;17.016;2024-01-25T07:06:18;26.70;30.50
65072;DHT22;51663;52.310;17.016;2024-01-25T07:09:21;26.80;30.50
65072;DHT22;51663;52.310;17.016;2024-01-25T07:12:23;27.20;30.00
65072;DHT22;51663;52.310;17.016;2024-01-25T07:15:25;27.20;30.20
65072;DHT22;51663;52.310;17.016;2024-01-25T07:18:28;27.20;30.00
65072;DHT22;51663;52.310;17.016;2024-01-25T07:21:30;27.30;29.90
65072;DHT22;51663;52.310;17.016;2024-01-25T07:24:36;27.30;29.90
65072;DHT22;51663;52.310;17.016;2024-01-25T07:27:38;27.50;29.80
65072;DHT22;51663;52.310;17.016;2024-01-25T07:30:40;27.50;29.90
65072;DHT22;51663;52.310;17.016;2024-01-25T07:33:42;27.70;29.60
65072;DHT22;51663;52.310;17.016;2024-01-25T07:36:45;27.80;29.30
65072;DHT22;51663;52.310;17.016;2024-01-25T07:39:47;27.40;29.60
65072;DHT22;51663;52.310;17.016;2024-01-25T07:42:49;27.40;29.60
65072;DHT22;51663;52.310;17.016;2024-01-25T07:45:52;27.80;29.30
65072;DHT22;51663;52.310;17.016;2024-01-25T07:48:56;27.80;29.20
65072;DHT22;51663;52.310;17.016;2024-01-25T07:51:58;27.60;29.20
65072;DHT22;51663;52.310;17.016;2024-01-25T07:55:01;27.70;29.10
65072;DHT22;51663;52.310;17.016;2024-01-25T07:58:06;27.60;29.20
65072;DHT22;51663;52.310;17.016;2024-01-25T08:01:09;27.80;29.10
65072;DHT22;51663;52.310;17.016;2024-01-25T08:04:11;27.70;28.80
65072;DHT22;51663;52.310;17.016;2024-01-25T08:07:14;27.60;28.90
65072;DHT22;51663;52.310;17.016;2024-01-25T08:10:16;27.80;28.70
65072;DHT22;51663;52.310;17.016;2024-01-25T08:13:18;27.90;28.60
65072;DHT22;51663;52.310;17.016;2024-01-25T08:16:21;27.70;28.50
65072;DHT22;51663;52.310;17.016;2024-01-25T08:19:23;27.40;28.90
65072;DHT22;51663;52.310;17.016;2024-01-25T08:22:26;27.10;29.30
65072;DHT22;51663;52.310;17.016;2024-01-25T08:25:28;27.40;29.00
65072;DHT22;51663;52.310;17.016;2024-01-25T08:28:30;27.50;29.00
65072;DHT22;51663;52.310;17.016;2024-01-25T08:31:33;27.70;28.90
65072;DHT22;51663;52.310;17.016;2024-01-25T08:34:35;28.10;28.40
65072;DHT22;51663;52.310;17.016;2024-01-25T08:37:38;28.20;28.20
65072;DHT22;51663;52.310;17.016;2024-01-25T08:40:40;27.90;28.20
65072;DHT22;51663;52.310;17.016;2024-01-25T08:43:43;27.90;28.40
65072;DHT22;51663;52.310;17.016;2024-01-25T08:46:45;27.90;28.60
65072;DHT22;51663;52.310;17.016;2024-01-25T08:49:48;28.00;28.50
65072;DHT22;51663;52.310;17.016;2024-01-25T08:52:50;27.90;28.30
65072;DHT22;51663;52.310;17.016;2024-01-25T08:55:54;28.00;28.50
65072;DHT22;51663;52.310;17.016;2024-01-25T08:58:56;27.80;28.70
65072;DHT22;51663;52.310;17.016;2024-01-25T09:01:58;28.00;28.60
65072;DHT22;51663;52.310;17.016;2024-01-25T09:05:01;28.50;28.20
65072;DHT22;51663;52.310;17.016;2024-01-25T09:08:04;28.20;28.20
65072;DHT22;51663;52.310;17.016;2024-01-25T09:11:06;28.20;28.50
65072;DHT22;51663;52.310;17.016;2024-01-25T09:14:09;28.00;28.60
65072;DHT22;51663;52.310;17.016;2024-01-25T09:17:11;28.20;28.60
65072;DHT22;51663;52.310;17.016;2024-01-25T09:20:16;28.20;28.20
65072;DHT22;51663;52.310;17.016;2024-01-25T09:23:19;27.80;28.60
65072;DHT22;51663;52.310;17.016;2024-01-25T09:26:22;27.80;28.50
65072;DHT22;51663;52.310;17.016;2024-01-25T09:29:24;28.30;28.10
65072;DHT22;51663;52.310;17.016;2024-01-25T09:32:27;27.90;28.20
65072;DHT22;51663;52.310;17.016;2024-01-25T09:35:29;27.80;28.60
65072;DHT22;51663;52.310;17.016;2024-01-25T09:38:32;28.00;28.60
65072;DHT22;51663;52.310;17.016;2024-01-25T09:41:34;28.40;28.10
65072;DHT22;51663;52.310;17.016;2024-01-25T09:44:37;28.60;28.10
65072;DHT22;51663;52.310;17.016;2024-01-25T09:47:40;28.40;28.40
65072;DHT22;51663;52.310;17.016;2024-01-25T09:50:44;28.20;28.50
65072;DHT22;51663;52.310;17.016;2024-01-25T09:53:49;28.50;28.30
65072;DHT22;51663;52.310;17.016;2024-01-25T09:56:54;28.50;28.20
65072;DHT22;51663;52.310;17.016;2024-01-25T09:59:56;28.30;28.40
65072;DHT22;51663;52.310;17.016;2024-01-25T10:02:58;28.00;28.70
65072;DHT22;51663;52.310;17.016;2024-01-25T10:06:04;28.50;28.40
65072;DHT22;51663;52.310;17.016;2024-01-25T10:09:09;28.70;28.10
65072;DHT22;51663;52.310;17.016;2024-01-25T10:12:11;29.00;27.70
65072;DHT22;51663;52.310;17.016;2024-01-25T10:15:20;29.10;27.80
65072;DHT22;51663;52.310;17.016;2024-01-25T10:18:23;28.90;28.30
65072;DHT22;51663;52.310;17.016;2024-01-25T10:21:31;28.70;28.10
65072;DHT22;51663;52.310;17.016;2024-01-25T10:24:34;28.50;28.10
65072;DHT22;51663;52.310;17.016;2024-01-25T10:27:37;28.40;28.30
65072;DHT22;51663;52.310;17.016;2024-01-25T10:30:39;28.30;28.20
65072;DHT22;51663;52.310;17.016;2024-01-25T10:33:43;28.20;28.40
65072;DHT22;51663;52.310;17.016;2024-01-25T10:36:46;28.10;28.50
65072;DHT22;51663;52.310;17.016;2024-01-25T10:39:49;28.10;28.50
65072;DHT22;51663;52.310;17.016;2024-01-25T10:42:52;28.00;28.50
65072;DHT22;51663;52.310;17.016;2024-01-25T10:45:55;28.20;28.40
65072;DHT22;51663;52.310;17.016;2024-01-25T10:49:02;28.50;28.20
65072;DHT22;51663;52.310;17.016;2024-01-25T10:52:05;28.50;28.10
65072;DHT22;51663;52.310;17.016;2024-01-25T10:55:08;28.70;27.90
65072;DHT22;51663;52.310;17.016;2024-01-25T10:58:13;28.50;27.90
65072;DHT22;51663;52.310;17.016;2024-01-25T11:01:16;27.90;28.70
65072;DHT22;51663;52.310;17.016;2024-01-25T11:04:20;28.00;28.60
65072;DHT22;51663;52.310;17.016;2024-01-25T11:07:23;27.70;28.70
65072;DHT22;51663;52.310;17.016;2024-01-25T11:10:26;28.00;28.60
65072;DHT22;51663;52.310;17.016;2024-01-25T11:13:29;28.10;28.50
65072;DHT22;51663;52.310;17.016;2024-01-25T11:16:35;28.40;28.20
65072;DHT22;51663;52.310;17.016;2024-01-25T11:19:40;28.50;28.10
65072;DHT22;51663;52.310;17.016;2024-01-25T11:22:45;28.20;28.20
65072;DHT22;51663;52.310;17.016;2024-01-25T11:25:47;28.20;28.40
65072;DHT22;51663;52.310;17.016;2024-01-25T11:28:51;27.90;28.30
65072;DHT22;51663;52.310;17.016;2024-01-25T11:31:53;28.00;28.90
65072;DHT22;51663;52.310;17.016;2024-01-25T11:34:59;28.20;28.10
65072;DHT22;51663;52.310;17.016;2024-01-25T11:38:01;28.30;28.30
65072;DHT22;51663;52.310;17.016;2024-01-25T11:41:04;28.50;28.10
65072;DHT22;51663;52.310;17.016;2024-01-25T11:44:06;28.50;28.00
65072;DHT22;51663;52.310;17.016;2024-01-25T11:47:08;28.70;28.00
65072;DHT22;51663;52.310;17.016;2024-01-25T11:50:12;28.90;27.90
65072;DHT22;51663;52.310;17.016;2024-01-25T11:53:15;28.80;27.90
65072;DHT22;51663;52.310;17.016;2024-01-25T11:56:30;28.60;27.90
65072;DHT22;51663;52.310;17.016;2024-01-25T11:59:33;28.90;27.80
65072;DHT22;51663;52.310;17.016;2024-01-25T12:02:36;28.90;27.70
65072;DHT22;51663;52.310;17.016;2024-01-25T12:05:39;29.10;27.70
65072;DHT22;51663;52.310;17.016;2024-01-25T12:08:42;28.90;27.50
65072;DHT22;51663;52.310;17.016;2024-01-25T12:11:49;28.60;27.90
65072;DHT22;51663;52.310;17.016;2024-01-25T12:15:00;28.30;28.40
65072;DHT22;51663;52.310;17.016;2024-01-25T12:18:05;28.50;28.50
65072;DHT22;51663;52.310;17.016;2024-01-25T12:21:10;28.70;28.60
65072;DHT22;51663;52.310;17.016;2024-01-25T12:24:19;28.30;28.80
65072;DHT22;51663;52.310;17.016;2024-01-25T12:27:22;27.90;28.90
65072;DHT22;51663;52.310;17.016;2024-01-25T12:30:24;27.80;29.50
65072;DHT22;51663;52.310;17.016;2024-01-25T12:33:27;28.00;29.60
65072;DHT22;51663;52.310;17.016;2024-01-25T12:36:30;28.40;29.10
65072;DHT22;51663;52.310;17.016;2024-01-25T12:39:32;28.30;28.90
65072;DHT22;51663;52.310;17.016;2024-01-25T12:42:35;28.10;29.10
65072;DHT22;51663;52.310;17.016;2024-01-25T12:45:37;28.00;29.20
65072;DHT22;51663;52.310;17.016;2024-01-25T12:48:40;27.70;29.40
65072;DHT22;51663;52.310;17.016;2024-01-25T12:51:42;28.20;29.20
65072;DHT22;51663;52.310;17.016;2024-01-25T12:54:44;28.20;29.30
65072;DHT22;51663;52.310;17.016;2024-01-25T12:57:47;28.60;29.40
65072;DHT22;51663;52.310;17.016;2024-01-25T13:00:49;28.60;28.90
65072;DHT22;51663;52.310;17.016;2024-01-25T13:03:52;28.30;29.20
65072;DHT22;51663;52.310;17.016;2024-01-25T13:06:55;28.30;29.10
65072;DHT22;51663;52.310;17.016;2024-01-25T13:09:58;28.50;29.00
65072;DHT22;51663;52.310;17.016;2024-01-25T13:13:00;28.30;29.00
65072;DHT22;51663;52.310;17.016;2024-01-25T13:16:02;28.40;29.00
65072;DHT22;51663;52.310;17.016;2024-01-25T13:19:05;28.40;28.80
65072;DHT22;51663;52.310;17.016;2024-01-25T13:22:07;28.80;28.60
65072;DHT22;51663;52.310;17.016;2024-01-25T13:25:10;29.20;28.20
65072;DHT22;51663;52.310;17.016;2024-01-25T13:28:13;29.10;28.10
65072;DHT22;51663;52.310;17.016;2024-01-25T13:31:16;29.00;28.10
65072;DHT22;51663;52.310;17.016;2024-01-25T13:34:18;28.80;28.30
65072;DHT22;51663;52.310;17.016;2024-01-25T13:37:20;29.10;28.10
65072;DHT22;51663;52.310;17.016;2024-01-25T13:40:22;29.00;28.10
65072;DHT22;51663;52.310;17.016;2024-01-25T13:43:25;29.10;28.20
65072;DHT22;51663;52.310;17.016;2024-01-25T13:46:28;29.30;28.00
65072;DHT22;51663;52.310;17.016;2024-01-25T13:49:30;29.40;27.70
65072;DHT22;51663;52.310;17.016;2024-01-25T13:52:32;29.30;27.80
65072;DHT22;51663;52.310;17.016;2024-01-25T13:55:35;29.30;27.80
65072;DHT22;51663;52.310;17.016;2024-01-25T13:58:37;29.50;27.70
65072;DHT22;51663;52.310;17.016;2024-01-25T14:01:39;29.30;27.90
65072;DHT22;51663;52.310;17.016;2024-01-25T14:04:41;29.50;28.00
65072;DHT22;51663;52.310;17.016;2024-01-25T14:07:44;29.30;28.40
65072;DHT22;51663;52.310;17.016;2024-01-25T14:10:46;29.50;28.70
65072;DHT22;51663;52.310;17.016;2024-01-25T14:13:49;29.80;28.50
65072;DHT22;51663;52.310;17.016;2024-01-25T14:16:52;29.60;28.60
65072;DHT22;51663;52.310;17.016;2024-01-25T14:19:54;29.50;28.90
65072;DHT22;51663;52.310;17.016;2024-01-25T14:22:57;29.50;28.70
65072;DHT22;51663;52.310;17.016;2024-01-25T14:26:00;29.20;29.20
65072;DHT22;51663;52.310;17.016;2024-01-25T14:29:03;28.60;29.30
65072;DHT22;51663;52.310;17.016;2024-01-25T14:32:05;28.30;29.90
65072;DHT22;51663;52.310;17.016;2024-01-25T14:35:08;28.50;29.70
65072;DHT22;51663;52.310;17.016;2024-01-25T14:38:10;28.50;29.60
65072;DHT22;51663;52.310;17.016;2024-01-25T14:41:12;28.40;29.60
65072;DHT22;51663;52.310;17.016;2024-01-25T14:44:15;28.50;29.70
65072;DHT22;51663;52.310;17.016;2024-01-25T14:47:17;28.60;29.50
65072;DHT22;51663;52.310;17.016;2024-01-25T14:50:24;28.70;29.50
65072;DHT22;51663;52.310;17.016;2024-01-25T14:53:26;28.70;29.50
65072;DHT22;51663;52.310;17.016;2024-01-25T14:56:28;28.90;29.40
65072;DHT22;51663;52.310;17.016;2024-01-25T14:59:30;28.90;29.40
65072;DHT22;51663;52.310;17.016;2024-01-25T15:02:33;28.90;29.40
65072;DHT22;51663;52.310;17.016;2024-01-25T15:05:35;28.90;28.90
65072;DHT22;51663;52.310;17.016;2024-01-25T15:08:38;28.80;29.20
65072;DHT22;51663;52.310;17.016;2024-01-25T15:11:40;28.80;29.20
65072;DHT22;51663;52.310;17.016;2024-01-25T15:14:42;28.80;29.20
65072;DHT22;51663;52.310;17.016;2024-01-25T15:17:44;28.60;29.80
65072;DHT22;51663;52.310;17.016;2024-01-25T15:20:47;28.60;29.60
65072;DHT22;51663;52.310;17.016;2024-01-25T15:23:50;28.40;29.70
65072;DHT22;51663;52.310;17.016;2024-01-25T15:26:53;28.40;29.60
65072;DHT22;51663;52.310;17.016;2024-01-25T15:29:55;28.50;29.60
65072;DHT22;51663;52.310;17.016;2024-01-25T15:32:58;28.90;29.20
65072;DHT22;51663;52.310;17.016;2024-01-25T15:36:01;28.70;29.40
65072;DHT22;51663;52.310;17.016;2024-01-25T15:39:03;28.80;29.30
65072;DHT22;51663;52.310;17.016;2024-01-25T15:42:05;28.60;29.40
65072;DHT22;51663;52.310;17.016;2024-01-25T15:45:08;28.70;29.20
65072;DHT22;51663;52.310;17.016;2024-01-25T15:48:10;28.20;29.40
65072;DHT22;51663;52.310;17.016;2024-01-25T15:51:13;28.10;30.00
65072;DHT22;51663;52.310;17.016;2024-01-25T15:54:15;28.10;29.70
65072;DHT22;51663;52.310;17.016;2024-01-25T15:57:18;28.20;29.50
65072;DHT22;51663;52.310;17.016;2024-01-25T16:00:20;27.80;29.90
65072;DHT22;51663;52.310;17.016;2024-01-25T16:03:23;27.80;29.90
65072;DHT22;51663;52.310;17.016;2024-01-25T16:06:25;27.80;29.50
65072;DHT22;51663;52.310;17.016;2024-01-25T16:09:28;26.70;31.30
65072;DHT22;51663;52.310;17.016;2024-01-25T16:12:30;26.80;30.80
65072;DHT22;51663;52.310;17.016;2024-01-25T16:15:33;27.00;30.70
65072;DHT22;51663;52.310;17.016;2024-01-25T16:18:35;27.20;30.10
65072;DHT22;51663;52.310;17.016;2024-01-25T16:21:37;27.10;30.40
65072;DHT22;51663;52.310;17.016;2024-01-25T16:24:40;27.60;29.90
65072;DHT22;51663;52.310;17.016;2024-01-25T16:27:42;27.40;29.70
65072;DHT22;51663;52.310;17.016;2024-01-25T16:30:45;27.60;29.40
65072;DHT22;51663;52.310;17.016;2024-01-25T16:33:47;27.60;29.60
65072;DHT22;51663;52.310;17.016;2024-01-25T16:36:50;27.70;29.20
65072;DHT22;51663;52.310;17.016;2024-01-25T16:40:00;27.70;29.30
65072;DHT22;51663;52.310;17.016;2024-01-25T16:43:03;27.60;29.40
65072;DHT22;51663;52.310;17.016;2024-01-25T16:46:05;27.70;29.20
65072;DHT22;51663;52.310;17.016;2024-01-25T16:49:08;27.60;28.70
65072;DHT22;51663;52.310;17.016;2024-01-25T16:52:10;27.70;28.90
65072;DHT22;51663;52.310;17.016;2024-01-25T16:55:12;27.60;29.00
65072;DHT22;51663;52.310;17.016;2024-01-25T16:58:15;27.50;28.80
65072;DHT22;51663;52.310;17.016;2024-01-25T17:01:17;27.50;28.90
65072;DHT22;51663;52.310;17.016;2024-01-25T17:04:22;27.30;29.10
65072;DHT22;51663;52.310;17.016;2024-01-25T17:07:25;27.10;28.90
65072;DHT22;51663;52.310;17.016;2024-01-25T17:10:27;27.40;28.80
65072;DHT22;51663;52.310;17.016;2024-01-25T17:13:29;27.10;29.20
65072;DHT22;51663;52.310;17.016;2024-01-25T17:16:32;26.70;29.50
65072;DHT22;51663;52.310;17.016;2024-01-25T17:19:34;26.80;29.80
65072;DHT22;51663;52.310;17.016;2024-01-25T17:22:36;27.10;29.40
65072;DHT22;51663;52.310;17.016;2024-01-25T17:25:38;27.30;29.10
65072;DHT22;51663;52.310;17.016;2024-01-25T17:28:41;27.00;29.50
65072;DHT22;51663;52.310;17.016;2024-01-25T17:31:43;27.10;29.40
65072;DHT22;51663;52.310;17.016;2024-01-25T17:34:45;26.90;29.10
65072;DHT22;51663;52.310;17.016;2024-01-25T17:37:47;27.10;29.40
65072;DHT22;51663;52.310;17.016;2024-01-25T17:40:50;27.50;29.20
65072;DHT22;51663;52.310;17.016;2024-01-25T17:43:52;27.10;28.90
65072;DHT22;51663;52.310;17.016;2024-01-25T17:46:55;26.70;29.90
65072;DHT22;51663;52.310;17.016;2024-01-25T17:49:57;27.30;29.30
65072;DHT22;51663;52.310;17.016;2024-01-25T17:53:00;27.40;29.30
65072;DHT22;51663;52.310;17.016;2024-01-25T17:56:04;27.50;29.20
65072;DHT22;51663;52.310;17.016;2024-01-25T17:59:08;27.60;28.70
65072;DHT22;51663;52.310;17.016;2024-01-25T18:02:10;27.80;28.50
65072;DHT22;51663;52.310;17.016;2024-01-25T18:05:13;28.20;28.10
65072;DHT22;51663;52.310;17.016;2024-01-25T18:08:15;27.80;28.80
65072;DHT22;51663;52.310;17.016;2024-01-25T18:11:18;27.80;28.60
65072;DHT22;51663;52.310;17.016;2024-01-25T18:14:20;28.00;28.50
65072;DHT22;51663;52.310;17.016;2024-01-25T18:17:23;28.00;28.20
65072;DHT22;51663;52.310;17.016;2024-01-25T18:20:25;28.30;28.10
65072;DHT22;51663;52.310;17.016;2024-01-25T18:23:28;28.20;28.20
65072;DHT22;51663;52.310;17.016;2024-01-25T18:26:30;28.10;28.00
65072;DHT22;51663;52.310;17.016;2024-01-25T18:29:33;28.30;27.80
65072;DHT22;51663;52.310;17.016;2024-01-25T18:32:35;28.50;27.70
65072;DHT22;51663;52.310;17.016;2024-01-25T18:35:38;28.00;28.00
65072;DHT22;51663;52.310;17.016;2024-01-25T18:38:40;28.10;28.00
65072;DHT22;51663;52.310;17.016;2024-01-25T18:41:43;27.90;28.20
65072;DHT22;51663;52.310;17.016;2024-01-25T18:44:45;28.40;27.80
65072;DHT22;51663;52.310;17.016;2024-01-25T18:47:53;28.50;27.50
65072;DHT22;51663;52.310;17.016;2024-01-25T18:50:57;27.50;27.80
65072;DHT22;51663;52.310;17.016;2024-01-25T18:53:59;27.30;28.90
65072;DHT22;51663;52.310;17.016;2024-01-25T18:57:02;26.40;28.90